createdAt,value
2019-01-15T00:00:33.076Z,18.57
2019-01-15T00:03:37.540Z,18.59
2019-01-15T00:06:41.011Z,18.56
2019-01-15T00:09:44.443Z,18.56
2019-01-15T00:12:47.918Z,18.58
2019-01-15T00:15:52.415Z,18.57
2019-01-15T00:18:57.004Z,18.57
2019-01-15T00:22:01.461Z,18.57
2019-01-15T00:25:06.033Z,18.56
2019-01-15T00:28:09.497Z,18.54
2019-01-15T00:31:14.012Z,18.55
2019-01-15T00:34:19.560Z,18.53
2019-01-15T00:37:22.985Z,18.54
2019-01-15T00:40:26.431Z,18.53
2019-01-15T00:43:29.930Z,18.55
2019-01-15T00:46:34.488Z,18.52
2019-01-15T00:49:38.000Z,18.53
2019-01-15T00:52:41.486Z,18.52
2019-01-15T00:55:45.090Z,18.50
2019-01-15T00:58:48.599Z,18.49
2019-01-15T01:01:52.053Z,18.48
2019-01-15T01:04:55.577Z,18.47
2019-01-15T01:08:00.123Z,18.49
2019-01-15T01:11:03.719Z,18.49
2019-01-15T01:14:07.334Z,18.49
2019-01-15T01:17:10.838Z,18.47
2019-01-15T01:20:16.984Z,18.47
2019-01-15T01:23:20.417Z,18.47
2019-01-15T01:26:23.993Z,18.41
2019-01-15T01:29:27.429Z,18.43
2019-01-15T01:32:30.913Z,18.43
2019-01-15T01:35:34.493Z,18.41
2019-01-15T01:38:38.019Z,18.43
2019-01-15T01:41:41.501Z,18.43
2019-01-15T01:44:45.046Z,18.42
2019-01-15T01:47:48.505Z,18.41
2019-01-15T01:50:52.026Z,18.40
2019-01-15T01:53:55.504Z,18.42
2019-01-15T01:57:00.038Z,18.41
2019-01-15T02:00:12.895Z,18.39
2019-01-15T02:03:16.345Z,18.37
2019-01-15T02:06:19.954Z,18.37
2019-01-15T02:09:26.529Z,18.37
2019-01-15T02:12:36.869Z,18.38
2019-01-15T02:15:36.330Z,18.36
2019-01-15T02:18:39.803Z,18.36
2019-01-15T02:21:43.306Z,18.33
2019-01-15T02:24:46.794Z,18.34
2019-01-15T02:27:53.345Z,18.34
2019-01-15T02:30:57.794Z,18.34
2019-01-15T02:34:03.377Z,18.32
2019-01-15T02:37:06.842Z,18.31
2019-01-15T02:40:11.139Z,18.31
2019-01-15T02:43:14.663Z,18.31
2019-01-15T02:46:18.178Z,18.33
2019-01-15T02:49:22.710Z,18.31
2019-01-15T02:52:29.685Z,18.31
2019-01-15T02:55:33.189Z,18.30
2019-01-15T02:58:36.685Z,18.30
2019-01-15T03:01:41.210Z,18.29
2019-01-15T03:04:51.474Z,18.28
2019-01-15T03:07:54.955Z,18.27
2019-01-15T03:10:59.494Z,18.28
2019-01-15T03:14:04.019Z,18.28
2019-01-15T03:17:10.717Z,18.28
2019-01-15T03:20:14.606Z,18.27
2019-01-15T03:23:18.122Z,18.25
2019-01-15T03:26:21.709Z,18.27
2019-01-15T03:29:25.218Z,18.28
2019-01-15T03:32:28.717Z,18.29
2019-01-15T03:35:32.157Z,18.27
2019-01-15T03:38:35.717Z,18.26
2019-01-15T03:41:39.227Z,18.26
2019-01-15T03:44:43.751Z,18.26
2019-01-15T03:47:47.237Z,18.25
2019-01-15T03:50:50.784Z,18.25
2019-01-15T03:53:56.300Z,18.26
2019-01-15T03:56:59.792Z,18.26
2019-01-15T04:00:03.776Z,18.26
2019-01-15T04:03:07.398Z,18.26
2019-01-15T04:06:11.932Z,18.25
2019-01-15T04:09:16.457Z,18.26
2019-01-15T04:12:19.968Z,18.23
2019-01-15T04:15:25.512Z,18.24
2019-01-15T04:18:30.075Z,18.25
2019-01-15T04:21:39.316Z,18.23
2019-01-15T04:24:42.773Z,18.22
2019-01-15T04:27:46.250Z,18.21
2019-01-15T04:30:49.687Z,18.18
2019-01-15T04:33:53.499Z,18.21
2019-01-15T04:36:58.009Z,18.19
2019-01-15T04:40:03.713Z,18.22
2019-01-15T04:43:07.156Z,18.22
2019-01-15T04:46:10.670Z,18.20
2019-01-15T04:49:14.154Z,18.21
2019-01-15T04:52:18.142Z,18.19
2019-01-15T04:55:22.734Z,18.20
2019-01-15T04:58:28.277Z,18.19
2019-01-15T05:01:32.805Z,18.20
2019-01-15T05:04:36.241Z,18.22
2019-01-15T05:07:40.791Z,18.21
2019-01-15T05:10:44.235Z,18.19
2019-01-15T05:13:47.717Z,18.19
2019-01-15T05:16:51.152Z,18.19
2019-01-15T05:19:54.623Z,18.19
2019-01-15T05:22:58.098Z,18.18
2019-01-15T05:26:01.601Z,18.19
2019-01-15T05:29:07.146Z,18.17
2019-01-15T05:32:10.583Z,18.18
2019-01-15T05:35:14.171Z,18.17
2019-01-15T05:38:17.658Z,18.19
2019-01-15T05:41:21.156Z,18.19
2019-01-15T05:44:24.650Z,18.18
2019-01-15T05:47:28.548Z,18.18
2019-01-15T05:50:44.823Z,18.16
2019-01-15T05:53:50.325Z,18.16
2019-01-15T05:56:53.810Z,18.18
2019-01-15T05:59:59.362Z,18.18
2019-01-15T06:03:02.874Z,18.18
2019-01-15T06:06:06.304Z,18.17
2019-01-15T06:09:11.202Z,18.17
2019-01-15T06:12:14.800Z,18.16
2019-01-15T06:15:18.311Z,18.15
2019-01-15T06:18:22.825Z,18.16
2019-01-15T06:21:26.347Z,18.18
2019-01-15T06:24:30.840Z,18.15
2019-01-15T06:27:34.289Z,18.16
2019-01-15T06:30:38.886Z,18.18
2019-01-15T06:33:42.378Z,18.17
2019-01-15T06:36:45.892Z,18.17
2019-01-15T06:39:49.374Z,18.17
2019-01-15T06:42:52.944Z,18.17
2019-01-15T06:45:57.424Z,18.15
2019-01-15T06:49:01.930Z,18.16
2019-01-15T06:52:05.387Z,18.16
2019-01-15T06:55:12.398Z,18.14
2019-01-15T06:58:15.922Z,18.17
2019-01-15T07:01:19.428Z,18.16
2019-01-15T07:04:22.870Z,18.17
2019-01-15T07:07:26.336Z,18.16
2019-01-15T07:10:32.494Z,18.16
2019-01-15T07:13:36.001Z,18.15
2019-01-15T07:16:39.780Z,18.15
2019-01-15T07:19:49.030Z,18.14
2019-01-15T07:22:52.548Z,18.14
2019-01-15T07:25:56.034Z,18.13
2019-01-15T07:29:01.579Z,18.13
2019-01-15T07:32:05.030Z,18.13
2019-01-15T07:35:09.306Z,18.14
2019-01-15T07:38:12.913Z,18.13
2019-01-15T07:41:22.299Z,18.13
2019-01-15T07:44:25.746Z,18.12
2019-01-15T07:47:30.311Z,18.10
2019-01-15T07:50:33.778Z,18.11
2019-01-15T07:53:37.299Z,18.12
2019-01-15T07:56:40.878Z,18.10
2019-01-15T07:59:44.340Z,18.08
2019-01-15T08:02:48.482Z,18.11
2019-01-15T08:05:54.047Z,18.10
2019-01-15T08:08:58.562Z,18.09
2019-01-15T08:12:02.063Z,18.09
2019-01-15T08:15:06.991Z,18.09
2019-01-15T08:18:10.505Z,18.08
2019-01-15T08:21:17.071Z,18.08
2019-01-15T08:24:20.583Z,18.09
2019-01-15T08:27:24.094Z,18.09
2019-01-15T08:30:33.413Z,18.05
2019-01-15T08:33:37.041Z,18.05
2019-01-15T08:36:40.585Z,18.08
2019-01-15T08:39:44.229Z,18.07
2019-01-15T08:42:48.778Z,18.10
2019-01-15T08:45:55.322Z,18.08
2019-01-15T08:48:58.523Z,18.08
2019-01-15T08:52:02.038Z,18.07
2019-01-15T08:55:05.614Z,18.08
2019-01-15T08:58:10.211Z,18.08
2019-01-15T09:01:13.852Z,18.07
2019-01-15T09:04:19.677Z,18.12
2019-01-15T09:07:23.347Z,18.13
2019-01-15T09:10:27.840Z,18.17
2019-01-15T09:13:34.419Z,18.19
2019-01-15T09:16:37.956Z,18.20
2019-01-15T09:19:41.418Z,18.22
2019-01-15T09:22:44.921Z,18.23
2019-01-15T09:25:48.357Z,18.25
2019-01-15T09:28:51.872Z,18.27
2019-01-15T09:31:57.472Z,18.27
2019-01-15T09:35:02.001Z,18.27
2019-01-15T09:38:07.217Z,18.31
2019-01-15T09:41:10.833Z,18.30
2019-01-15T09:44:14.351Z,18.33
2019-01-15T09:47:18.863Z,18.34
2019-01-15T09:50:23.397Z,18.36
2019-01-15T09:53:26.899Z,18.36
2019-01-15T09:56:30.393Z,18.37
2019-01-15T09:59:33.887Z,18.38
2019-01-15T10:02:37.402Z,18.40
2019-01-15T10:05:40.843Z,18.40
2019-01-15T10:08:44.280Z,18.45
2019-01-15T10:11:47.893Z,18.43
2019-01-15T10:14:52.430Z,18.40
2019-01-15T10:17:55.874Z,18.43
2019-01-15T10:20:59.422Z,18.46
2019-01-15T10:24:02.968Z,18.44
2019-01-15T10:27:07.428Z,18.40
2019-01-15T10:30:17.132Z,18.40
2019-01-15T10:33:42.710Z,18.42
2019-01-15T10:36:45.066Z,18.44
2019-01-15T10:39:50.538Z,18.45
2019-01-15T10:42:54.021Z,18.51
2019-01-15T10:45:57.542Z,18.50
2019-01-15T10:49:01.037Z,18.49
2019-01-15T10:52:04.581Z,18.50
2019-01-15T10:55:09.690Z,18.51
2019-01-15T10:58:17.485Z,18.50
2019-01-15T11:01:18.533Z,18.49
2019-01-15T11:04:22.047Z,18.45
2019-01-15T11:07:25.525Z,18.43
2019-01-15T11:10:29.020Z,18.45
2019-01-15T11:13:32.708Z,18.44
2019-01-15T11:16:38.400Z,18.48
2019-01-15T11:19:42.027Z,18.50
2019-01-15T11:22:45.595Z,18.52
2019-01-15T11:25:49.190Z,18.52
2019-01-15T11:28:52.727Z,18.54
2019-01-15T11:31:56.192Z,18.54
2019-01-15T11:34:59.705Z,18.52
2019-01-15T11:38:03.202Z,18.54
2019-01-15T11:41:06.728Z,18.56
2019-01-15T11:44:10.325Z,18.58
2019-01-15T11:47:13.910Z,18.59
2019-01-15T11:50:17.587Z,18.59
2019-01-15T11:53:21.137Z,18.59
2019-01-15T11:56:25.740Z,18.59
2019-01-15T11:59:29.824Z,18.60
2019-01-15T12:02:51.574Z,18.59
2019-01-15T12:06:07.956Z,18.60
2019-01-15T12:09:29.768Z,18.59
2019-01-15T12:12:46.392Z,18.58
2019-01-15T12:16:08.986Z,18.57
2019-01-15T12:19:22.013Z,18.58
2019-01-15T12:22:52.713Z,18.58
2019-01-15T12:26:10.900Z,18.60
2019-01-15T12:29:26.489Z,18.58
2019-01-15T12:32:49.017Z,18.57
2019-01-15T12:36:10.238Z,18.61
2019-01-15T12:39:31.545Z,18.63
2019-01-15T12:42:56.352Z,18.63
2019-01-15T12:46:18.048Z,18.61
2019-01-15T12:49:46.636Z,18.60
2019-01-15T12:53:07.488Z,18.60
2019-01-15T12:56:29.006Z,18.63
2019-01-15T12:59:56.762Z,18.67
2019-01-15T13:03:22.281Z,18.67
2019-01-15T13:06:37.188Z,18.67
2019-01-15T13:09:58.705Z,18.63
2019-01-15T13:13:22.161Z,18.63
2019-01-15T13:16:58.018Z,18.64
2019-01-15T13:20:12.345Z,18.65
2019-01-15T13:23:33.327Z,18.66
2019-01-15T13:26:55.437Z,18.67
2019-01-15T13:30:18.103Z,18.66
2019-01-15T13:33:36.797Z,18.64
2019-01-15T13:36:46.081Z,18.68
2019-01-15T13:39:57.253Z,18.67
2019-01-15T13:43:24.147Z,18.70
2019-01-15T13:46:43.980Z,18.68
2019-01-15T13:50:07.268Z,18.71
2019-01-15T13:53:23.026Z,18.71
2019-01-15T13:56:35.888Z,18.71
2019-01-15T13:59:59.209Z,18.73
2019-01-15T14:03:12.855Z,18.73
2019-01-15T14:06:37.336Z,18.73
2019-01-15T14:09:59.128Z,18.75
2019-01-15T14:13:21.634Z,18.73
2019-01-15T14:16:50.832Z,18.77
2019-01-15T14:20:16.275Z,18.77
2019-01-15T14:23:43.197Z,18.73
2019-01-15T14:26:53.864Z,18.75
2019-01-15T14:30:15.227Z,18.75
2019-01-15T14:33:33.127Z,18.75
2019-01-15T14:36:54.351Z,18.77
2019-01-15T14:40:15.504Z,18.80
2019-01-15T14:43:36.699Z,18.79
2019-01-15T14:47:11.415Z,18.79
2019-01-15T14:50:36.895Z,18.82
2019-01-15T14:54:12.546Z,18.84
2019-01-15T14:57:29.237Z,18.86
2019-01-15T15:01:05.224Z,18.87
2019-01-15T15:04:22.983Z,18.84
2019-01-15T15:07:54.517Z,18.87
2019-01-15T15:11:11.759Z,18.90
2019-01-15T15:14:35.086Z,18.88
2019-01-15T15:17:49.602Z,18.86
2019-01-15T15:21:03.212Z,18.91
2019-01-15T15:24:20.956Z,18.94
2019-01-15T15:27:43.675Z,18.89
2019-01-15T15:31:01.269Z,18.93
2019-01-15T15:34:22.520Z,18.94
2019-01-15T15:37:44.099Z,18.96
2019-01-15T15:40:58.039Z,18.92
2019-01-15T15:44:26.335Z,18.95
2019-01-15T15:47:48.890Z,18.96
2019-01-15T15:51:10.400Z,18.96
2019-01-15T15:54:42.206Z,18.93
2019-01-15T15:58:05.837Z,18.95
2019-01-15T16:01:40.728Z,18.94
2019-01-15T16:04:59.257Z,18.98
2019-01-15T16:08:20.408Z,18.97
2019-01-15T16:11:42.087Z,18.98
2019-01-15T16:14:57.725Z,18.95
2019-01-15T16:18:23.615Z,18.96
2019-01-15T16:21:50.729Z,18.94
2019-01-15T16:25:06.518Z,18.92
2019-01-15T16:28:25.898Z,18.93
2019-01-15T16:31:36.160Z,18.95
2019-01-15T16:35:07.881Z,18.96
2019-01-15T16:38:33.222Z,18.93
2019-01-15T16:42:05.650Z,18.96
2019-01-15T16:45:28.004Z,18.99
2019-01-15T16:48:50.702Z,19.00
2019-01-15T16:52:12.454Z,19.00
2019-01-15T16:55:25.341Z,19.02
2019-01-15T16:58:46.808Z,19.02
2019-01-15T17:02:21.562Z,19.03
2019-01-15T17:05:47.215Z,19.04
2019-01-15T17:09:08.616Z,19.02
2019-01-15T17:12:34.635Z,19.05
2019-01-15T17:16:00.198Z,19.05
2019-01-15T17:19:21.854Z,19.07
2019-01-15T17:22:43.329Z,19.07
2019-01-15T17:26:04.966Z,19.08
2019-01-15T17:29:15.933Z,19.08
2019-01-15T17:32:29.066Z,19.09
2019-01-15T17:35:44.655Z,19.10
2019-01-15T17:39:09.602Z,19.10
2019-01-15T17:42:30.807Z,19.12
2019-01-15T17:46:02.334Z,19.11
2019-01-15T17:49:33.983Z,19.13
2019-01-15T17:52:55.614Z,19.14
2019-01-15T17:56:30.549Z,19.15
2019-01-15T17:59:56.282Z,19.15
2019-01-15T18:03:21.838Z,19.16
2019-01-15T18:06:43.243Z,19.19
2019-01-15T18:10:04.772Z,19.17
2019-01-15T18:13:25.534Z,19.23
2019-01-15T18:16:48.738Z,19.30
2019-01-15T18:20:09.772Z,19.42
2019-01-15T18:23:41.417Z,19.49
2019-01-15T18:27:12.948Z,19.57
2019-01-15T18:30:38.365Z,19.68
2019-01-15T18:33:59.922Z,19.75
2019-01-15T18:37:24.055Z,19.81
2019-01-15T18:40:49.058Z,19.87
2019-01-15T18:44:13.265Z,19.93
2019-01-15T18:47:34.394Z,20.00
2019-01-15T18:51:08.797Z,20.03
2019-01-15T18:54:43.425Z,20.10
2019-01-15T18:58:10.801Z,20.12
2019-01-15T19:01:24.584Z,20.18
2019-01-15T19:04:37.456Z,20.27
2019-01-15T19:08:03.107Z,20.29
2019-01-15T19:11:24.311Z,20.36
2019-01-15T19:14:49.942Z,20.41
2019-01-15T19:18:15.425Z,20.44
2019-01-15T19:21:47.324Z,20.49
2019-01-15T19:25:08.487Z,20.52
2019-01-15T19:28:29.886Z,20.56
2019-01-15T19:31:48.577Z,20.60
2019-01-15T19:35:09.731Z,20.65
2019-01-15T19:38:31.231Z,20.71
2019-01-15T19:41:52.610Z,20.77
2019-01-15T19:45:08.424Z,20.86
2019-01-15T19:48:33.071Z,20.90
2019-01-15T19:51:54.133Z,20.95
2019-01-15T19:55:09.216Z,20.97
2019-01-15T19:58:46.947Z,20.99
2019-01-15T20:02:06.391Z,21.02
2019-01-15T20:05:24.423Z,21.03
2019-01-15T20:08:45.769Z,21.06
2019-01-15T20:12:04.516Z,21.09
2019-01-15T20:15:33.693Z,21.15
2019-01-15T20:18:50.073Z,21.17
2019-01-15T20:22:12.824Z,21.21
2019-01-15T20:25:26.867Z,21.22
2019-01-15T20:28:41.382Z,21.25
2019-01-15T20:32:10.048Z,21.30
2019-01-15T20:35:31.403Z,21.30
2019-01-15T20:38:53.646Z,21.31
2019-01-15T20:42:08.286Z,21.35
2019-01-15T20:45:22.755Z,21.35
2019-01-15T20:48:36.291Z,21.38
2019-01-15T20:51:56.064Z,21.40
2019-01-15T20:55:27.775Z,21.41
2019-01-15T20:58:45.879Z,21.43
2019-01-15T21:02:01.872Z,21.45
2019-01-15T21:05:17.762Z,21.48
2019-01-15T21:08:56.739Z,21.52
2019-01-15T21:12:18.203Z,21.48
2019-01-15T21:15:39.741Z,21.48
2019-01-15T21:19:17.451Z,21.50
2019-01-15T21:22:30.331Z,21.43
2019-01-15T21:25:44.723Z,21.47
2019-01-15T21:29:22.435Z,21.51
2019-01-15T21:32:43.857Z,21.54
2019-01-15T21:36:02.615Z,21.57
2019-01-15T21:39:32.420Z,21.59
2019-01-15T21:42:48.614Z,21.62
2019-01-15T21:46:09.995Z,21.62
2019-01-15T21:49:24.491Z,21.65
2019-01-15T21:52:38.754Z,21.67
2019-01-15T21:56:16.695Z,21.67
2019-01-15T21:59:33.782Z,21.68
2019-01-15T22:02:55.007Z,21.70
2019-01-15T22:06:26.865Z,21.71
2019-01-15T22:09:47.556Z,21.73
2019-01-15T22:13:10.931Z,21.75
2019-01-15T22:16:32.961Z,21.76
2019-01-15T22:20:10.906Z,21.76
2019-01-15T22:23:48.559Z,21.78
2019-01-15T22:27:12.063Z,21.79
2019-01-15T22:30:28.755Z,21.79
2019-01-15T22:33:41.878Z,21.82
2019-01-15T22:37:11.593Z,21.83
2019-01-15T22:40:27.802Z,21.84
2019-01-15T22:43:41.213Z,21.84
2019-01-15T22:47:03.763Z,21.86
2019-01-15T22:50:30.122Z,21.88
2019-01-15T22:53:52.049Z,21.86
2019-01-15T22:57:19.907Z,21.88
2019-01-15T23:01:02.275Z,21.88
2019-01-15T23:04:20.746Z,21.88
2019-01-15T23:07:36.232Z,21.90
2019-01-15T23:10:57.894Z,21.90
2019-01-15T23:14:28.363Z,21.91
2019-01-15T23:18:02.490Z,21.92
2019-01-15T23:21:22.810Z,21.95
2019-01-15T23:24:45.485Z,21.96
2019-01-15T23:28:07.033Z,21.96
2019-01-15T23:31:24.231Z,21.97
2019-01-15T23:34:45.764Z,21.99
2019-01-15T23:38:02.864Z,22.00
2019-01-15T23:41:28.184Z,22.00
2019-01-15T23:44:52.268Z,22.01
2019-01-15T23:48:09.870Z,22.03
2019-01-15T23:51:22.929Z,22.04
2019-01-15T23:54:39.740Z,22.04
2019-01-15T23:58:15.688Z,22.07
